sensor_id;sensor_type;location;lat;lon;timestamp;P1;durP1;ratioP1;P2;durP2;ratioP2
417;SDS011;49;48.530;9.200;2022-12-10T00:00:05;144.60;;;39.43;;
417;SDS011;49;48.530;9.200;2022-12-10T00:02:50;143.67;;;46.40;;
417;SDS011;49;48.530;9.200;2022-12-10T00:05:48;122.20;;;41.73;;
417;SDS011;49;48.530;9.200;2022-12-10T00:08:24;118.77;;;42.83;;
417;SDS011;49;48.530;9.200;2022-12-10T00:17:34;140.13;;;41.57;;
417;SDS011;49;48.530;9.200;2022-12-10T00:20:32;168.20;;;42.40;;
417;SDS011;49;48.530;9.200;2022-12-10T00:23:25;129.57;;;42.87;;
417;SDS011;49;48.530;9.200;2022-12-10T00:26:29;131.57;;;39.93;;
417;SDS011;49;48.530;9.200;2022-12-10T00:29:11;142.80;;;40.47;;
417;SDS011;49;48.530;9.200;2022-12-10T00:31:53;146.27;;;41.10;;
417;SDS011;49;48.530;9.200;2022-12-10T00:34:40;108.90;;;39.20;;
417;SDS011;49;48.530;9.200;2022-12-10T00:37:24;138.77;;;39.47;;
417;SDS011;49;48.530;9.200;2022-12-10T00:40:27;131.23;;;42.87;;
417;SDS011;49;48.530;9.200;2022-12-10T00:43:04;104.50;;;41.80;;
417;SDS011;49;48.530;9.200;2022-12-10T00:45:46;120.13;;;40.20;;
417;SDS011;49;48.530;9.200;2022-12-10T00:48:26;117.50;;;39.60;;
417;SDS011;49;48.530;9.200;2022-12-10T00:51:09;116.13;;;37.43;;
417;SDS011;49;48.530;9.200;2022-12-10T00:53:52;124.33;;;40.00;;
417;SDS011;49;48.530;9.200;2022-12-10T00:56:36;95.57;;;42.23;;
417;SDS011;49;48.530;9.200;2022-12-10T00:59:21;103.57;;;38.53;;
417;SDS011;49;48.530;9.200;2022-12-10T01:01:51;105.77;;;42.10;;
417;SDS011;49;48.530;9.200;2022-12-10T01:04:44;98.87;;;41.47;;
417;SDS011;49;48.530;9.200;2022-12-10T01:07:37;103.80;;;41.07;;
417;SDS011;49;48.530;9.200;2022-12-10T01:10:23;93.73;;;37.87;;
417;SDS011;49;48.530;9.200;2022-12-10T01:12:56;83.23;;;37.67;;
417;SDS011;49;48.530;9.200;2022-12-10T01:15:26;87.50;;;39.73;;
417;SDS011;49;48.530;9.200;2022-12-10T01:18:05;87.03;;;39.97;;
417;SDS011;49;48.530;9.200;2022-12-10T01:23:45;128.00;;;43.47;;
417;SDS011;49;48.530;9.200;2022-12-10T01:30:13;156.17;;;41.00;;
417;SDS011;49;48.530;9.200;2022-12-10T01:35:12;128.03;;;41.17;;
417;SDS011;49;48.530;9.200;2022-12-10T01:36:49;147.80;;;41.33;;
417;SDS011;49;48.530;9.200;2022-12-10T01:39:33;113.00;;;42.00;;
417;SDS011;49;48.530;9.200;2022-12-10T01:42:11;108.30;;;41.87;;
417;SDS011;49;48.530;9.200;2022-12-10T01:45:02;122.20;;;43.17;;
417;SDS011;49;48.530;9.200;2022-12-10T01:47:47;141.53;;;43.63;;
417;SDS011;49;48.530;9.200;2022-12-10T01:50:39;109.13;;;41.73;;
417;SDS011;49;48.530;9.200;2022-12-10T01:53:26;90.23;;;39.93;;
417;SDS011;49;48.530;9.200;2022-12-10T01:56:06;101.67;;;40.90;;
417;SDS011;49;48.530;9.200;2022-12-10T01:58:51;101.40;;;43.77;;
417;SDS011;49;48.530;9.200;2022-12-10T02:01:36;108.77;;;41.50;;
417;SDS011;49;48.530;9.200;2022-12-10T02:04:22;115.97;;;45.00;;
417;SDS011;49;48.530;9.200;2022-12-10T02:07:04;107.97;;;41.90;;
417;SDS011;49;48.530;9.200;2022-12-10T02:10:23;121.80;;;48.27;;
417;SDS011;49;48.530;9.200;2022-12-10T02:13:10;112.30;;;44.03;;
417;SDS011;49;48.530;9.200;2022-12-10T02:15:57;111.33;;;43.17;;
417;SDS011;49;48.530;9.200;2022-12-10T02:18:35;117.47;;;47.80;;
417;SDS011;49;48.530;9.200;2022-12-10T02:21:16;119.27;;;44.93;;
417;SDS011;49;48.530;9.200;2022-12-10T02:23:54;110.83;;;43.40;;
417;SDS011;49;48.530;9.200;2022-12-10T02:26:36;114.20;;;44.20;;
417;SDS011;49;48.530;9.200;2022-12-10T02:29:21;126.10;;;44.97;;
417;SDS011;49;48.530;9.200;2022-12-10T02:32:01;116.60;;;46.23;;
417;SDS011;49;48.530;9.200;2022-12-10T02:34:43;117.00;;;45.30;;
417;SDS011;49;48.530;9.200;2022-12-10T02:37:33;120.20;;;46.07;;
417;SDS011;49;48.530;9.200;2022-12-10T02:40:50;107.47;;;42.30;;
417;SDS011;49;48.530;9.200;2022-12-10T02:43:31;106.17;;;44.77;;
417;SDS011;49;48.530;9.200;2022-12-10T02:46:09;107.43;;;46.10;;
417;SDS011;49;48.530;9.200;2022-12-10T02:52:17;101.33;;;44.23;;
417;SDS011;49;48.530;9.200;2022-12-10T02:57:58;103.83;;;46.10;;
417;SDS011;49;48.530;9.200;2022-12-10T03:00:56;103.90;;;46.30;;
417;SDS011;49;48.530;9.200;2022-12-10T03:04:01;100.20;;;44.50;;
417;SDS011;49;48.530;9.200;2022-12-10T03:09:59;97.23;;;44.03;;
417;SDS011;49;48.530;9.200;2022-12-10T03:12:54;108.50;;;43.27;;
417;SDS011;49;48.530;9.200;2022-12-10T03:15:36;110.37;;;46.50;;
417;SDS011;49;48.530;9.200;2022-12-10T03:18:23;103.97;;;44.70;;
417;SDS011;49;48.530;9.200;2022-12-10T03:21:03;106.20;;;43.73;;
417;SDS011;49;48.530;9.200;2022-12-10T03:23:57;93.77;;;45.30;;
417;SDS011;49;48.530;9.200;2022-12-10T03:26:25;96.10;;;43.17;;
417;SDS011;49;48.530;9.200;2022-12-10T03:29:12;91.00;;;44.80;;
417;SDS011;49;48.530;9.200;2022-12-10T03:31:54;93.87;;;43.90;;
417;SDS011;49;48.530;9.200;2022-12-10T03:34:33;89.80;;;42.87;;
417;SDS011;49;48.530;9.200;2022-12-10T03:37:42;103.30;;;46.20;;
417;SDS011;49;48.530;9.200;2022-12-10T03:43:23;87.83;;;41.00;;
417;SDS011;49;48.530;9.200;2022-12-10T03:46:00;93.77;;;43.77;;
417;SDS011;49;48.530;9.200;2022-12-10T03:48:38;88.90;;;42.13;;
417;SDS011;49;48.530;9.200;2022-12-10T03:51:16;87.63;;;43.03;;
417;SDS011;49;48.530;9.200;2022-12-10T03:56:46;83.57;;;41.50;;
417;SDS011;49;48.530;9.200;2022-12-10T03:59:23;83.20;;;42.73;;
417;SDS011;49;48.530;9.200;2022-12-10T04:01:58;82.80;;;40.47;;
417;SDS011;49;48.530;9.200;2022-12-10T04:04:40;79.13;;;42.67;;
417;SDS011;49;48.530;9.200;2022-12-10T04:07:18;76.70;;;39.63;;
417;SDS011;49;48.530;9.200;2022-12-10T04:10:15;75.00;;;39.10;;
417;SDS011;49;48.530;9.200;2022-12-10T04:12:56;81.67;;;40.03;;
417;SDS011;49;48.530;9.200;2022-12-10T04:15:47;75.47;;;39.77;;
417;SDS011;49;48.530;9.200;2022-12-10T04:18:39;73.47;;;38.47;;
417;SDS011;49;48.530;9.200;2022-12-10T04:21:20;77.23;;;38.83;;
417;SDS011;49;48.530;9.200;2022-12-10T04:24:10;74.30;;;38.40;;
417;SDS011;49;48.530;9.200;2022-12-10T04:27:15;81.77;;;40.30;;
417;SDS011;49;48.530;9.200;2022-12-10T04:29:58;69.60;;;37.60;;
417;SDS011;49;48.530;9.200;2022-12-10T04:32:40;70.97;;;36.80;;
417;SDS011;49;48.530;9.200;2022-12-10T04:35:15;81.17;;;38.60;;
417;SDS011;49;48.530;9.200;2022-12-10T04:37:52;81.90;;;40.90;;
417;SDS011;49;48.530;9.200;2022-12-10T04:40:29;74.13;;;38.17;;
417;SDS011;49;48.530;9.200;2022-12-10T04:43:10;76.10;;;39.70;;
417;SDS011;49;48.530;9.200;2022-12-10T04:46:06;84.57;;;39.57;;
417;SDS011;49;48.530;9.200;2022-12-10T04:48:47;126.30;;;54.60;;
417;SDS011;49;48.530;9.200;2022-12-10T04:51:39;102.07;;;44.80;;
417;SDS011;49;48.530;9.200;2022-12-10T04:54:16;104.17;;;48.30;;
417;SDS011;49;48.530;9.200;2022-12-10T04:57:07;100.10;;;44.40;;
417;SDS011;49;48.530;9.200;2022-12-10T04:59:42;76.67;;;38.27;;
417;SDS011;49;48.530;9.200;2022-12-10T05:02:18;74.87;;;40.03;;
417;SDS011;49;48.530;9.200;2022-12-10T05:04:48;79.40;;;39.23;;
417;SDS011;49;48.530;9.200;2022-12-10T05:07:19;75.23;;;38.77;;
417;SDS011;49;48.530;9.200;2022-12-10T05:10:20;68.20;;;37.37;;
417;SDS011;49;48.530;9.200;2022-12-10T05:13:02;81.13;;;39.20;;
417;SDS011;49;48.530;9.200;2022-12-10T05:15:49;80.07;;;40.70;;
417;SDS011;49;48.530;9.200;2022-12-10T05:18:28;74.60;;;37.83;;
417;SDS011;49;48.530;9.200;2022-12-10T05:21:13;78.13;;;40.10;;
417;SDS011;49;48.530;9.200;2022-12-10T05:23:54;68.80;;;35.60;;
417;SDS011;49;48.530;9.200;2022-12-10T05:26:29;68.57;;;34.13;;
417;SDS011;49;48.530;9.200;2022-12-10T05:29:10;74.37;;;37.57;;
417;SDS011;49;48.530;9.200;2022-12-10T05:35:07;66.90;;;36.17;;
417;SDS011;49;48.530;9.200;2022-12-10T05:37:55;67.53;;;35.33;;
417;SDS011;49;48.530;9.200;2022-12-10T05:40:34;65.90;;;37.27;;
417;SDS011;49;48.530;9.200;2022-12-10T05:43:18;70.07;;;37.00;;
417;SDS011;49;48.530;9.200;2022-12-10T05:45:53;63.17;;;33.63;;
417;SDS011;49;48.530;9.200;2022-12-10T05:48:44;67.33;;;36.93;;
417;SDS011;49;48.530;9.200;2022-12-10T05:51:33;68.10;;;34.73;;
417;SDS011;49;48.530;9.200;2022-12-10T05:54:16;64.23;;;36.20;;
417;SDS011;49;48.530;9.200;2022-12-10T05:56:48;70.53;;;34.83;;
417;SDS011;49;48.530;9.200;2022-12-10T05:59:40;102.20;;;53.87;;
417;SDS011;49;48.530;9.200;2022-12-10T06:03:09;141.23;;;71.23;;
417;SDS011;49;48.530;9.200;2022-12-10T06:05:35;70.70;;;39.33;;
417;SDS011;49;48.530;9.200;2022-12-10T06:08:23;69.93;;;37.73;;
417;SDS011;49;48.530;9.200;2022-12-10T06:11:09;77.50;;;39.60;;
417;SDS011;49;48.530;9.200;2022-12-10T06:14:02;62.60;;;35.50;;
417;SDS011;49;48.530;9.200;2022-12-10T06:16:39;64.97;;;37.10;;
417;SDS011;49;48.530;9.200;2022-12-10T06:19:27;71.70;;;38.00;;
417;SDS011;49;48.530;9.200;2022-12-10T06:22:10;78.73;;;39.33;;
417;SDS011;49;48.530;9.200;2022-12-10T06:25:11;69.50;;;40.90;;
417;SDS011;49;48.530;9.200;2022-12-10T06:27:57;70.43;;;36.60;;
417;SDS011;49;48.530;9.200;2022-12-10T06:30:54;69.33;;;36.40;;
417;SDS011;49;48.530;9.200;2022-12-10T06:33:37;76.13;;;39.03;;
417;SDS011;49;48.530;9.200;2022-12-10T06:39:44;74.90;;;38.80;;
417;SDS011;49;48.530;9.200;2022-12-10T06:42:16;80.83;;;45.87;;
417;SDS011;49;48.530;9.200;2022-12-10T06:45:00;69.93;;;38.60;;
417;SDS011;49;48.530;9.200;2022-12-10T06:47:47;69.30;;;38.40;;
417;SDS011;49;48.530;9.200;2022-12-10T06:50:34;69.10;;;37.43;;
417;SDS011;49;48.530;9.200;2022-12-10T06:53:24;71.97;;;38.60;;
417;SDS011;49;48.530;9.200;2022-12-10T06:56:29;72.60;;;37.10;;
417;SDS011;49;48.530;9.200;2022-12-10T07:05:00;69.33;;;36.60;;
417;SDS011;49;48.530;9.200;2022-12-10T07:07:57;66.53;;;37.60;;
417;SDS011;49;48.530;9.200;2022-12-10T07:10:49;67.03;;;35.43;;
417;SDS011;49;48.530;9.200;2022-12-10T07:13:35;77.10;;;40.77;;
417;SDS011;49;48.530;9.200;2022-12-10T07:16:13;76.50;;;39.23;;
417;SDS011;49;48.530;9.200;2022-12-10T07:18:41;74.10;;;40.60;;
417;SDS011;49;48.530;9.200;2022-12-10T07:21:21;66.80;;;38.77;;
417;SDS011;49;48.530;9.200;2022-12-10T07:24:11;66.10;;;36.57;;
417;SDS011;49;48.530;9.200;2022-12-10T07:27:03;71.30;;;39.57;;
417;SDS011;49;48.530;9.200;2022-12-10T07:29:49;69.13;;;37.00;;
417;SDS011;49;48.530;9.200;2022-12-10T07:32:30;74.77;;;37.40;;
417;SDS011;49;48.530;9.200;2022-12-10T07:35:16;90.83;;;44.67;;
417;SDS011;49;48.530;9.200;2022-12-10T07:37:47;75.87;;;40.10;;
417;SDS011;49;48.530;9.200;2022-12-10T07:40:33;138.87;;;62.00;;
417;SDS011;49;48.530;9.200;2022-12-10T07:43:07;77.20;;;42.47;;
417;SDS011;49;48.530;9.200;2022-12-10T07:46:00;73.83;;;41.70;;
417;SDS011;49;48.530;9.200;2022-12-10T07:49:02;68.13;;;39.17;;
417;SDS011;49;48.530;9.200;2022-12-10T07:51:39;66.13;;;38.23;;
417;SDS011;49;48.530;9.200;2022-12-10T07:54:20;62.60;;;37.00;;
417;SDS011;49;48.530;9.200;2022-12-10T07:56:55;67.17;;;38.67;;
417;SDS011;49;48.530;9.200;2022-12-10T07:59:48;68.13;;;39.63;;
417;SDS011;49;48.530;9.200;2022-12-10T08:02:27;69.87;;;38.47;;
417;SDS011;49;48.530;9.200;2022-12-10T08:04:57;66.30;;;37.60;;
417;SDS011;49;48.530;9.200;2022-12-10T08:07:49;73.27;;;39.57;;
417;SDS011;49;48.530;9.200;2022-12-10T08:10:32;61.23;;;36.23;;
417;SDS011;49;48.530;9.200;2022-12-10T08:13:11;67.87;;;37.20;;
417;SDS011;49;48.530;9.200;2022-12-10T08:15:53;70.60;;;39.43;;
417;SDS011;49;48.530;9.200;2022-12-10T08:18:49;65.40;;;36.37;;
417;SDS011;49;48.530;9.200;2022-12-10T08:21:25;65.73;;;37.20;;
417;SDS011;49;48.530;9.200;2022-12-10T08:24:10;61.37;;;33.67;;
417;SDS011;49;48.530;9.200;2022-12-10T08:26:50;62.57;;;34.27;;
417;SDS011;49;48.530;9.200;2022-12-10T08:29:30;62.00;;;36.13;;
417;SDS011;49;48.530;9.200;2022-12-10T08:32:06;63.63;;;35.23;;
417;SDS011;49;48.530;9.200;2022-12-10T08:34:50;55.30;;;34.40;;
417;SDS011;49;48.530;9.200;2022-12-10T08:37:33;57.63;;;34.47;;
417;SDS011;49;48.530;9.200;2022-12-10T08:40:07;62.93;;;33.60;;
417;SDS011;49;48.530;9.200;2022-12-10T08:42:41;54.07;;;34.00;;
417;SDS011;49;48.530;9.200;2022-12-10T08:45:16;56.30;;;34.90;;
417;SDS011;49;48.530;9.200;2022-12-10T08:47:59;61.80;;;35.03;;
417;SDS011;49;48.530;9.200;2022-12-10T08:50:41;56.87;;;33.37;;
417;SDS011;49;48.530;9.200;2022-12-10T08:53:16;56.30;;;32.43;;
417;SDS011;49;48.530;9.200;2022-12-10T08:55:49;54.20;;;33.77;;
417;SDS011;49;48.530;9.200;2022-12-10T08:58:24;55.43;;;34.30;;
417;SDS011;49;48.530;9.200;2022-12-10T09:01:05;53.80;;;33.87;;
417;SDS011;49;48.530;9.200;2022-12-10T09:03:47;57.87;;;34.60;;
417;SDS011;49;48.530;9.200;2022-12-10T09:06:21;57.50;;;30.60;;
417;SDS011;49;48.530;9.200;2022-12-10T09:08:55;55.70;;;32.73;;
417;SDS011;49;48.530;9.200;2022-12-10T09:11:30;54.50;;;34.27;;
417;SDS011;49;48.530;9.200;2022-12-10T09:14:10;49.70;;;32.17;;
417;SDS011;49;48.530;9.200;2022-12-10T09:16:40;52.77;;;32.20;;
417;SDS011;49;48.530;9.200;2022-12-10T09:19:38;53.47;;;32.90;;
417;SDS011;49;48.530;9.200;2022-12-10T09:25:14;55.80;;;33.13;;
417;SDS011;49;48.530;9.200;2022-12-10T09:27:46;53.70;;;31.87;;
417;SDS011;49;48.530;9.200;2022-12-10T09:30:17;53.37;;;33.37;;
417;SDS011;49;48.530;9.200;2022-12-10T09:33:06;53.90;;;30.57;;
417;SDS011;49;48.530;9.200;2022-12-10T09:35:42;55.87;;;33.60;;
417;SDS011;49;48.530;9.200;2022-12-10T09:38:20;52.80;;;31.30;;
417;SDS011;49;48.530;9.200;2022-12-10T09:41:02;55.13;;;33.30;;
417;SDS011;49;48.530;9.200;2022-12-10T09:44:00;55.47;;;32.63;;
417;SDS011;49;48.530;9.200;2022-12-10T09:46:48;54.53;;;32.80;;
417;SDS011;49;48.530;9.200;2022-12-10T09:49:40;52.57;;;32.13;;
417;SDS011;49;48.530;9.200;2022-12-10T09:52:26;51.67;;;33.10;;
417;SDS011;49;48.530;9.200;2022-12-10T09:55:10;58.93;;;32.40;;
417;SDS011;49;48.530;9.200;2022-12-10T09:57:58;56.50;;;32.13;;
417;SDS011;49;48.530;9.200;2022-12-10T10:00:42;54.90;;;31.60;;
417;SDS011;49;48.530;9.200;2022-12-10T10:03:32;52.50;;;31.37;;
417;SDS011;49;48.530;9.200;2022-12-10T10:06:28;53.87;;;31.77;;
417;SDS011;49;48.530;9.200;2022-12-10T10:09:01;53.67;;;30.97;;
417;SDS011;49;48.530;9.200;2022-12-10T10:11:57;62.33;;;33.00;;
417;SDS011;49;48.530;9.200;2022-12-10T10:17:40;47.30;;;28.60;;
417;SDS011;49;48.530;9.200;2022-12-10T10:20:22;58.60;;;31.30;;
417;SDS011;49;48.530;9.200;2022-12-10T10:23:05;51.10;;;29.97;;
417;SDS011;49;48.530;9.200;2022-12-10T10:25:56;61.80;;;31.60;;
417;SDS011;49;48.530;9.200;2022-12-10T10:28:32;57.20;;;32.20;;
417;SDS011;49;48.530;9.200;2022-12-10T10:31:12;59.10;;;33.50;;
417;SDS011;49;48.530;9.200;2022-12-10T10:33:57;47.97;;;28.83;;
417;SDS011;49;48.530;9.200;2022-12-10T10:36:34;57.17;;;35.30;;
417;SDS011;49;48.530;9.200;2022-12-10T10:39:07;58.40;;;29.40;;
417;SDS011;49;48.530;9.200;2022-12-10T10:41:54;51.83;;;30.50;;
417;SDS011;49;48.530;9.200;2022-12-10T10:44:47;48.13;;;30.00;;
417;SDS011;49;48.530;9.200;2022-12-10T10:47:31;52.33;;;30.33;;
417;SDS011;49;48.530;9.200;2022-12-10T10:50:23;49.50;;;28.20;;
417;SDS011;49;48.530;9.200;2022-12-10T10:56:38;53.27;;;32.13;;
417;SDS011;49;48.530;9.200;2022-12-10T10:59:35;54.47;;;30.50;;
417;SDS011;49;48.530;9.200;2022-12-10T11:02:25;59.17;;;31.80;;
417;SDS011;49;48.530;9.200;2022-12-10T11:05:14;58.50;;;30.60;;
417;SDS011;49;48.530;9.200;2022-12-10T11:08:18;49.57;;;30.90;;
417;SDS011;49;48.530;9.200;2022-12-10T11:11:12;39.77;;;25.47;;
417;SDS011;49;48.530;9.200;2022-12-10T11:13:53;46.10;;;29.67;;
417;SDS011;49;48.530;9.200;2022-12-10T11:16:52;44.93;;;27.87;;
417;SDS011;49;48.530;9.200;2022-12-10T11:19:57;45.60;;;26.07;;
417;SDS011;49;48.530;9.200;2022-12-10T11:22:51;48.07;;;29.30;;
417;SDS011;49;48.530;9.200;2022-12-10T11:25:49;44.10;;;28.37;;
417;SDS011;49;48.530;9.200;2022-12-10T11:28:40;44.33;;;28.30;;
417;SDS011;49;48.530;9.200;2022-12-10T11:31:41;36.77;;;23.20;;
417;SDS011;49;48.530;9.200;2022-12-10T11:34:33;39.70;;;25.70;;
417;SDS011;49;48.530;9.200;2022-12-10T11:37:36;43.10;;;26.97;;
417;SDS011;49;48.530;9.200;2022-12-10T11:40:33;45.27;;;27.07;;
417;SDS011;49;48.530;9.200;2022-12-10T11:43:19;43.17;;;26.27;;
417;SDS011;49;48.530;9.200;2022-12-10T11:46:31;40.47;;;25.70;;
417;SDS011;49;48.530;9.200;2022-12-10T11:49:28;43.23;;;27.40;;
417;SDS011;49;48.530;9.200;2022-12-10T11:52:23;41.97;;;26.63;;
417;SDS011;49;48.530;9.200;2022-12-10T11:55:27;37.90;;;25.53;;
417;SDS011;49;48.530;9.200;2022-12-10T11:58:33;46.37;;;26.50;;
417;SDS011;49;48.530;9.200;2022-12-10T12:01:24;40.90;;;25.77;;
417;SDS011;49;48.530;9.200;2022-12-10T12:04:10;37.13;;;23.30;;
417;SDS011;49;48.530;9.200;2022-12-10T12:07:03;56.73;;;29.60;;
417;SDS011;49;48.530;9.200;2022-12-10T12:10:09;55.73;;;31.00;;
417;SDS011;49;48.530;9.200;2022-12-10T12:13:05;45.30;;;26.20;;
417;SDS011;49;48.530;9.200;2022-12-10T12:15:56;39.13;;;25.13;;
417;SDS011;49;48.530;9.200;2022-12-10T12:18:36;39.93;;;25.30;;
417;SDS011;49;48.530;9.200;2022-12-10T12:21:15;35.80;;;23.97;;
417;SDS011;49;48.530;9.200;2022-12-10T12:23:58;34.40;;;20.00;;
417;SDS011;49;48.530;9.200;2022-12-10T12:26:43;37.23;;;21.30;;
417;SDS011;49;48.530;9.200;2022-12-10T12:29:27;37.17;;;21.20;;
417;SDS011;49;48.530;9.200;2022-12-10T12:32:09;33.80;;;19.00;;
417;SDS011;49;48.530;9.200;2022-12-10T12:35:01;28.40;;;19.00;;
417;SDS011;49;48.530;9.200;2022-12-10T12:37:48;29.67;;;19.70;;
417;SDS011;49;48.530;9.200;2022-12-10T12:40:48;37.37;;;19.87;;
417;SDS011;49;48.530;9.200;2022-12-10T12:43:43;29.17;;;19.07;;
417;SDS011;49;48.530;9.200;2022-12-10T12:46:33;28.53;;;18.30;;
417;SDS011;49;48.530;9.200;2022-12-10T12:49:22;26.97;;;17.97;;
417;SDS011;49;48.530;9.200;2022-12-10T12:54:57;29.77;;;20.47;;
417;SDS011;49;48.530;9.200;2022-12-10T12:57:43;28.13;;;18.40;;
417;SDS011;49;48.530;9.200;2022-12-10T13:00:31;28.90;;;18.50;;
417;SDS011;49;48.530;9.200;2022-12-10T13:03:19;28.47;;;18.00;;
417;SDS011;49;48.530;9.200;2022-12-10T13:09:18;28.50;;;19.67;;
417;SDS011;49;48.530;9.200;2022-12-10T13:15:38;30.83;;;20.80;;
417;SDS011;49;48.530;9.200;2022-12-10T13:24:12;38.10;;;22.00;;
417;SDS011;49;48.530;9.200;2022-12-10T13:30:32;27.37;;;17.27;;
417;SDS011;49;48.530;9.200;2022-12-10T13:33:53;32.07;;;21.00;;
417;SDS011;49;48.530;9.200;2022-12-10T13:37:03;29.87;;;20.80;;
417;SDS011;49;48.530;9.200;2022-12-10T13:40:09;36.07;;;21.53;;
417;SDS011;49;48.530;9.200;2022-12-10T13:43:35;33.63;;;22.10;;
417;SDS011;49;48.530;9.200;2022-12-10T13:49:58;33.73;;;20.33;;
417;SDS011;49;48.530;9.200;2022-12-10T13:55:47;40.70;;;23.73;;
417;SDS011;49;48.530;9.200;2022-12-10T13:58:47;30.17;;;18.63;;
417;SDS011;49;48.530;9.200;2022-12-10T14:01:45;35.20;;;22.17;;
417;SDS011;49;48.530;9.200;2022-12-10T14:05:05;36.30;;;21.40;;
417;SDS011;49;48.530;9.200;2022-12-10T14:08:23;40.37;;;24.73;;
417;SDS011;49;48.530;9.200;2022-12-10T14:11:17;52.20;;;26.10;;
417;SDS011;49;48.530;9.200;2022-12-10T14:14:24;71.43;;;32.90;;
417;SDS011;49;48.530;9.200;2022-12-10T14:17:15;53.23;;;28.97;;
417;SDS011;49;48.530;9.200;2022-12-10T14:20:04;33.97;;;22.23;;
417;SDS011;49;48.530;9.200;2022-12-10T14:22:47;30.40;;;19.80;;
417;SDS011;49;48.530;9.200;2022-12-10T14:25:43;29.43;;;19.10;;
417;SDS011;49;48.530;9.200;2022-12-10T14:28:20;27.67;;;17.87;;
417;SDS011;49;48.530;9.200;2022-12-10T14:31:02;31.93;;;18.83;;
417;SDS011;49;48.530;9.200;2022-12-10T14:33:51;28.80;;;17.80;;
417;SDS011;49;48.530;9.200;2022-12-10T14:36:34;29.47;;;19.63;;
417;SDS011;49;48.530;9.200;2022-12-10T14:39:27;30.17;;;17.43;;
417;SDS011;49;48.530;9.200;2022-12-10T14:48:18;32.77;;;21.00;;
417;SDS011;49;48.530;9.200;2022-12-10T14:51:23;34.20;;;21.13;;
417;SDS011;49;48.530;9.200;2022-12-10T14:57:05;34.80;;;21.10;;
417;SDS011;49;48.530;9.200;2022-12-10T15:00:02;36.77;;;18.80;;
417;SDS011;49;48.530;9.200;2022-12-10T15:02:47;31.63;;;20.70;;
417;SDS011;49;48.530;9.200;2022-12-10T15:05:38;29.53;;;18.30;;
417;SDS011;49;48.530;9.200;2022-12-10T15:08:13;37.20;;;22.67;;
417;SDS011;49;48.530;9.200;2022-12-10T15:14:14;34.13;;;22.00;;
417;SDS011;49;48.530;9.200;2022-12-10T15:20:48;37.50;;;24.40;;
417;SDS011;49;48.530;9.200;2022-12-10T15:24:06;38.90;;;25.37;;
417;SDS011;49;48.530;9.200;2022-12-10T15:27:12;36.07;;;20.60;;
417;SDS011;49;48.530;9.200;2022-12-10T15:33:17;41.33;;;25.43;;
417;SDS011;49;48.530;9.200;2022-12-10T15:36:02;54.87;;;33.80;;
417;SDS011;49;48.530;9.200;2022-12-10T15:39:04;36.80;;;25.67;;
417;SDS011;49;48.530;9.200;2022-12-10T15:42:07;40.67;;;23.63;;
417;SDS011;49;48.530;9.200;2022-12-10T15:45:08;43.23;;;26.43;;
417;SDS011;49;48.530;9.200;2022-12-10T15:48:14;48.80;;;28.17;;
417;SDS011;49;48.530;9.200;2022-12-10T15:51:07;47.87;;;28.43;;
417;SDS011;49;48.530;9.200;2022-12-10T15:57:13;44.70;;;25.77;;
417;SDS011;49;48.530;9.200;2022-12-10T16:00:00;42.53;;;25.83;;
417;SDS011;49;48.530;9.200;2022-12-10T16:02:48;45.33;;;27.27;;
417;SDS011;49;48.530;9.200;2022-12-10T16:05:26;42.90;;;26.37;;
417;SDS011;49;48.530;9.200;2022-12-10T16:11:45;41.80;;;26.30;;
417;SDS011;49;48.530;9.200;2022-12-10T16:17:58;39.40;;;24.93;;
417;SDS011;49;48.530;9.200;2022-12-10T16:26:44;43.20;;;26.73;;
417;SDS011;49;48.530;9.200;2022-12-10T16:29:53;43.27;;;25.97;;
417;SDS011;49;48.530;9.200;2022-12-10T16:32:44;38.43;;;24.90;;
417;SDS011;49;48.530;9.200;2022-12-10T16:35:31;46.73;;;28.67;;
417;SDS011;49;48.530;9.200;2022-12-10T16:38:21;44.93;;;27.73;;
417;SDS011;49;48.530;9.200;2022-12-10T16:41:01;49.17;;;28.67;;
417;SDS011;49;48.530;9.200;2022-12-10T16:46:41;48.10;;;28.47;;
417;SDS011;49;48.530;9.200;2022-12-10T16:49:23;41.97;;;28.80;;
417;SDS011;49;48.530;9.200;2022-12-10T16:52:14;40.43;;;24.97;;
417;SDS011;49;48.530;9.200;2022-12-10T16:54:59;37.57;;;23.23;;
417;SDS011;49;48.530;9.200;2022-12-10T16:57:59;46.93;;;28.87;;
417;SDS011;49;48.530;9.200;2022-12-10T17:00:40;41.13;;;26.67;;
417;SDS011;49;48.530;9.200;2022-12-10T17:03:17;43.83;;;28.00;;
417;SDS011;49;48.530;9.200;2022-12-10T17:05:58;44.57;;;26.07;;
417;SDS011;49;48.530;9.200;2022-12-10T17:08:40;56.50;;;32.77;;
417;SDS011;49;48.530;9.200;2022-12-10T17:11:14;57.50;;;30.97;;
417;SDS011;49;48.530;9.200;2022-12-10T17:14:04;81.70;;;44.73;;
417;SDS011;49;48.530;9.200;2022-12-10T17:16:37;49.30;;;30.13;;
417;SDS011;49;48.530;9.200;2022-12-10T17:19:11;45.23;;;27.27;;
417;SDS011;49;48.530;9.200;2022-12-10T17:21:39;42.37;;;26.07;;
417;SDS011;49;48.530;9.200;2022-12-10T17:24:08;63.07;;;36.30;;
417;SDS011;49;48.530;9.200;2022-12-10T17:26:40;39.37;;;25.33;;
417;SDS011;49;48.530;9.200;2022-12-10T17:29:22;42.63;;;27.10;;
417;SDS011;49;48.530;9.200;2022-12-10T17:31:52;42.17;;;26.23;;
417;SDS011;49;48.530;9.200;2022-12-10T17:34:32;43.60;;;27.00;;
417;SDS011;49;48.530;9.200;2022-12-10T17:37:07;44.70;;;25.90;;
417;SDS011;49;48.530;9.200;2022-12-10T17:39:56;47.80;;;28.67;;
417;SDS011;49;48.530;9.200;2022-12-10T17:42:34;51.50;;;29.50;;
417;SDS011;49;48.530;9.200;2022-12-10T17:45:14;45.30;;;28.50;;
417;SDS011;49;48.530;9.200;2022-12-10T17:47:47;54.20;;;30.83;;
417;SDS011;49;48.530;9.200;2022-12-10T17:50:23;52.97;;;31.20;;
417;SDS011;49;48.530;9.200;2022-12-10T17:52:59;45.10;;;27.30;;
417;SDS011;49;48.530;9.200;2022-12-10T17:55:34;46.47;;;30.00;;
417;SDS011;49;48.530;9.200;2022-12-10T17:58:09;38.73;;;23.27;;
417;SDS011;49;48.530;9.200;2022-12-10T18:00:41;42.97;;;25.83;;
417;SDS011;49;48.530;9.200;2022-12-10T18:03:16;54.60;;;30.00;;
417;SDS011;49;48.530;9.200;2022-12-10T18:05:58;57.07;;;29.63;;
417;SDS011;49;48.530;9.200;2022-12-10T18:08:31;51.03;;;27.90;;
417;SDS011;49;48.530;9.200;2022-12-10T18:11:02;38.03;;;24.07;;
417;SDS011;49;48.530;9.200;2022-12-10T18:13:31;51.90;;;28.30;;
417;SDS011;49;48.530;9.200;2022-12-10T18:16:19;57.83;;;30.67;;
417;SDS011;49;48.530;9.200;2022-12-10T18:18:55;59.87;;;29.00;;
417;SDS011;49;48.530;9.200;2022-12-10T18:21:47;56.00;;;28.37;;
417;SDS011;49;48.530;9.200;2022-12-10T18:24:49;48.87;;;26.53;;
417;SDS011;49;48.530;9.200;2022-12-10T18:27:25;50.20;;;26.03;;
417;SDS011;49;48.530;9.200;2022-12-10T18:30:07;40.90;;;23.93;;
417;SDS011;49;48.530;9.200;2022-12-10T18:32:45;60.37;;;28.03;;
417;SDS011;49;48.530;9.200;2022-12-10T18:35:19;43.03;;;25.10;;
417;SDS011;49;48.530;9.200;2022-12-10T18:38:10;53.27;;;28.83;;
417;SDS011;49;48.530;9.200;2022-12-10T18:40:47;52.90;;;26.80;;
417;SDS011;49;48.530;9.200;2022-12-10T18:43:40;49.63;;;26.30;;
417;SDS011;49;48.530;9.200;2022-12-10T18:46:25;40.63;;;24.00;;
417;SDS011;49;48.530;9.200;2022-12-10T18:52:33;42.07;;;24.83;;
417;SDS011;49;48.530;9.200;2022-12-10T18:55:35;39.57;;;25.07;;
417;SDS011;49;48.530;9.200;2022-12-10T18:58:40;39.60;;;25.63;;
417;SDS011;49;48.530;9.200;2022-12-10T19:01:27;40.40;;;25.40;;
417;SDS011;49;48.530;9.200;2022-12-10T19:04:21;38.17;;;23.97;;
417;SDS011;49;48.530;9.200;2022-12-10T19:21:17;38.87;;;26.57;;
417;SDS011;49;48.530;9.200;2022-12-10T19:24:10;42.57;;;26.97;;
417;SDS011;49;48.530;9.200;2022-12-10T19:27:01;39.10;;;25.37;;
417;SDS011;49;48.530;9.200;2022-12-10T19:29:36;44.00;;;26.23;;
417;SDS011;49;48.530;9.200;2022-12-10T19:32:27;41.17;;;25.07;;
417;SDS011;49;48.530;9.200;2022-12-10T19:35:10;36.47;;;23.70;;
417;SDS011;49;48.530;9.200;2022-12-10T19:41:29;40.53;;;26.30;;